Time;durP1;ratioP1;P1;durP2;ratioP2;P2;SDS_P1;SDS_P2;PMS_P1;PMS_P2;Temp;Humidity;BMP_temperature;BMP_pressure;BME280_temperature;BME280_humidity;BME280_pressure;Samples;Min_cycle;Max_cycle;Signal;HPM_P1;HPM_P2
2022/06/13 00:00:58;;;;;;;13.77;4.55;;;13.70;99.90;;;;;;5090844;28;20161;-73
2022/06/13 00:03:24;;;;;;;17.10;4.53;;;13.70;99.90;;;;;;5070639;28;20062;-73
2022/06/13 00:05:49;;;;;;;9.05;4.07;;;13.70;99.90;;;;;;5070275;28;20495;-73
2022/06/13 00:08:15;;;;;;;12.23;4.65;;;13.70;99.90;;;;;;5070413;28;20043;-72
2022/06/13 00:10:41;;;;;;;11.45;4.43;;;13.70;99.90;;;;;;5075160;28;20072;-72
2022/06/13 00:13:06;;;;;;;14.38;4.72;;;13.70;99.90;;;;;;5074505;28;20119;-73
2022/06/13 00:15:33;;;;;;;13.43;4.25;;;13.60;99.90;;;;;;5077418;28;20070;-73
2022/06/13 00:17:59;;;;;;;14.85;4.60;;;13.60;99.90;;;;;;5073452;28;20410;-72
2022/06/13 00:20:25;;;;;;;15.23;5.45;;;13.60;99.90;;;;;;5072118;28;20036;-72
2022/06/13 00:22:50;;;;;;;10.77;4.97;;;13.60;99.90;;;;;;5071619;28;20048;-72
2022/06/13 00:25:16;;;;;;;35.03;4.93;;;13.60;99.90;;;;;;5071089;28;20029;-72
2022/06/13 00:27:43;;;;;;;15.75;5.28;;;13.60;99.90;;;;;;5090708;28;20047;-72
2022/06/13 00:30:09;;;;;;;15.50;5.22;;;13.60;99.90;;;;;;5070734;28;20066;-72
2022/06/13 00:32:35;;;;;;;15.13;4.68;;;13.60;99.90;;;;;;5069020;28;20043;-72
2022/06/13 00:35:02;;;;;;;16.75;4.78;;;13.60;99.90;;;;;;5071292;28;20043;-73
2022/06/13 00:37:28;;;;;;;14.15;5.13;;;13.60;99.90;;;;;;5076710;28;20032;-73
2022/06/13 00:39:53;;;;;;;12.52;4.78;;;13.60;99.90;;;;;;5073858;28;20402;-73
2022/06/13 00:42:22;;;;;;;15.15;5.30;;;13.60;99.90;;;;;;5074402;28;20118;-73
2022/06/13 00:45:08;;;;;;;13.23;5.00;;;13.60;99.90;;;;;;5062214;28;20466;-73
2022/06/13 00:47:37;;;;;;;15.07;4.85;;;13.60;99.90;;;;;;5069388;28;20380;-72
2022/06/13 00:50:06;;;;;;;16.73;4.90;;;13.60;99.90;;;;;;5076907;28;20440;-73
2022/06/13 00:52:40;;;;;;;15.80;4.75;;;13.70;99.90;;;;;;5067179;28;20085;-73
2022/06/13 00:55:10;;;;;;;17.38;5.10;;;13.70;99.90;;;;;;5071432;28;20122;-72
2022/06/13 00:57:36;;;;;;;10.25;4.63;;;13.70;99.90;;;;;;5062504;28;20040;-73
2022/06/13 01:00:08;;;;;;;16.15;4.88;;;13.70;99.90;;;;;;5073510;28;20062;-73
2022/06/13 01:02:35;;;;;;;18.45;5.22;;;13.80;99.90;;;;;;5073148;28;20467;-73
2022/06/13 01:05:01;;;;;;;15.60;4.82;;;13.80;99.90;;;;;;5074757;28;20084;-73
2022/06/13 01:07:28;;;;;;;11.98;4.90;;;13.80;99.90;;;;;;5069086;28;20033;-72
2022/06/13 01:12:39;;;;;;;11.77;5.00;;;13.80;99.90;;;;;;5075516;28;20387;-73
2022/06/13 01:15:17;;;;;;;14.68;5.20;;;13.80;99.90;;;;;;5085071;28;20044;-72
2022/06/13 01:18:12;;;;;;;12.27;5.15;;;13.80;99.90;;;;;;5075100;28;20402;-73
2022/06/13 01:20:59;;;;;;;15.00;5.50;;;13.80;99.90;;;;;;5001439;28;20406;-73
2022/06/13 01:24:02;;;;;;;16.42;5.43;;;13.80;99.90;;;;;;5067315;28;20578;-73
2022/06/13 01:26:50;;;;;;;18.30;6.32;;;13.70;99.90;;;;;;5072631;28;20413;-72
2022/06/13 01:29:41;;;;;;;17.27;6.38;;;13.70;99.90;;;;;;5074776;28;20421;-72
2022/06/13 01:32:23;;;;;;;14.82;5.88;;;13.70;99.90;;;;;;5073682;28;20028;-73
2022/06/13 01:35:07;;;;;;;18.20;6.18;;;13.70;99.90;;;;;;5069616;28;20552;-73
2022/06/13 01:37:54;;;;;;;16.20;6.28;;;13.70;99.90;;;;;;5070370;28;20495;-73
2022/06/13 01:40:38;;;;;;;16.05;6.13;;;13.70;99.90;;;;;;5068012;28;20507;-72
2022/06/13 01:43:11;;;;;;;18.80;6.35;;;13.70;99.90;;;;;;5073405;28;20040;-73
2022/06/13 01:45:45;;;;;;;16.48;6.43;;;13.70;99.90;;;;;;5054797;28;20518;-73
2022/06/13 01:48:17;;;;;;;12.82;6.43;;;13.70;99.90;;;;;;5057663;28;20036;-73
2022/06/13 01:50:52;;;;;;;17.73;6.60;;;13.60;99.90;;;;;;5069703;28;20644;-73
2022/06/13 01:53:42;;;;;;;17.55;7.05;;;13.50;99.90;;;;;;5069676;28;20490;-73
2022/06/13 01:56:13;;;;;;;17.90;7.38;;;13.50;99.90;;;;;;5074010;28;20032;-73
2022/06/13 01:58:52;;;;;;;19.40;7.88;;;13.60;99.90;;;;;;5090584;28;20522;-73
2022/06/13 02:01:29;;;;;;;21.88;7.88;;;13.50;99.90;;;;;;5078926;28;20494;-73
2022/06/13 02:04:09;;;;;;;19.90;8.63;;;13.60;99.90;;;;;;5061496;28;20081;-72
2022/06/13 02:06:40;;;;;;;18.90;7.88;;;13.60;99.90;;;;;;5071595;28;20487;-73
2022/06/13 02:09:26;;;;;;;19.08;8.57;;;13.60;99.90;;;;;;5061872;28;21439;-72
2022/06/13 02:11:53;;;;;;;18.20;8.30;;;13.60;99.90;;;;;;5073925;28;20051;-73
2022/06/13 02:14:36;;;;;;;19.23;8.77;;;13.60;99.90;;;;;;5064276;28;20127;-73
2022/06/13 02:17:12;;;;;;;18.77;8.55;;;13.60;99.90;;;;;;5079595;28;20064;-73
2022/06/13 02:19:41;;;;;;;21.83;9.27;;;13.60;99.90;;;;;;5067268;28;20044;-73
2022/06/13 02:22:33;;;;;;;20.13;8.43;;;13.60;99.90;;;;;;5085057;28;20032;-73
2022/06/13 02:25:06;;;;;;;21.42;8.65;;;13.60;99.90;;;;;;5059927;28;21383;-73
2022/06/13 02:27:37;;;;;;;20.52;8.45;;;13.60;99.90;;;;;;5061940;28;20036;-73
2022/06/13 02:30:10;;;;;;;17.52;7.75;;;13.60;99.90;;;;;;5065661;28;20052;-72
2022/06/13 02:32:46;;;;;;;20.98;8.60;;;13.60;99.90;;;;;;5070113;28;20044;-73
2022/06/13 02:35:16;;;;;;;16.35;8.27;;;13.60;99.90;;;;;;5076046;28;20040;-73
2022/06/13 02:37:53;;;;;;;18.20;7.82;;;13.60;99.90;;;;;;5084725;28;20060;-73
2022/06/13 02:40:31;;;;;;;16.27;7.70;;;13.50;99.90;;;;;;5066974;28;20028;-72
2022/06/13 02:43:12;;;;;;;19.33;8.32;;;13.40;99.90;;;;;;5067299;28;20047;-73
2022/06/13 02:46:00;;;;;;;13.52;7.63;;;13.30;99.90;;;;;;5071041;28;20044;-73
2022/06/13 02:48:38;;;;;;;17.65;8.18;;;13.20;99.90;;;;;;5061769;28;20036;-72
2022/06/13 02:51:17;;;;;;;18.55;8.10;;;13.20;99.90;;;;;;5067227;28;20044;-72
2022/06/13 02:54:00;;;;;;;22.23;7.95;;;13.10;99.90;;;;;;5064074;28;20439;-72
2022/06/13 02:57:25;;;;;;;20.45;7.88;;;13.10;99.90;;;;;;5065053;28;20063;-72
2022/06/13 02:59:56;;;;;;;16.83;7.80;;;13.10;99.90;;;;;;5050030;28;20079;-72
2022/06/13 03:03:04;;;;;;;19.60;7.67;;;13.00;99.90;;;;;;5072080;28;20055;-72
2022/06/13 03:05:54;;;;;;;17.33;7.47;;;13.00;99.90;;;;;;5031463;28;20324;-72
2022/06/13 03:08:47;;;;;;;24.17;7.75;;;13.10;99.90;;;;;;5042801;28;20066;-73
2022/06/13 03:11:25;;;;;;;18.20;7.28;;;13.00;99.90;;;;;;5082702;28;20039;-72
2022/06/13 03:13:59;;;;;;;18.05;7.63;;;13.00;99.90;;;;;;5069825;28;20044;-72
2022/06/13 03:16:54;;;;;;;18.15;7.43;;;13.10;99.90;;;;;;5071523;28;20082;-72
2022/06/13 03:19:27;;;;;;;17.10;7.63;;;13.00;99.90;;;;;;5032936;28;20060;-72
2022/06/13 03:22:03;;;;;;;19.63;7.82;;;13.00;99.90;;;;;;5064624;28;20516;-72
2022/06/13 03:24:49;;;;;;;20.20;8.75;;;13.10;99.90;;;;;;5072132;28;20074;-73
2022/06/13 03:27:29;;;;;;;22.25;8.35;;;13.10;99.90;;;;;;5067837;28;20040;-73
2022/06/13 03:30:11;;;;;;;16.50;8.05;;;13.10;99.90;;;;;;5081038;28;20048;-73
2022/06/13 03:33:40;;;;;;;20.67;8.63;;;13.10;99.90;;;;;;5068726;28;20043;-72
2022/06/13 03:35:38;;;;;;;20.17;8.93;;;13.20;99.90;;;;;;5067401;28;20105;-72
2022/06/13 03:38:08;;;;;;;21.60;9.45;;;13.10;99.90;;;;;;5070502;28;20110;-72
2022/06/13 03:40:38;;;;;;;26.73;9.52;;;13.10;99.90;;;;;;5070618;28;20043;-72
2022/06/13 03:43:16;;;;;;;19.65;9.02;;;13.20;99.90;;;;;;5080955;28;20094;-72
2022/06/13 03:45:46;;;;;;;19.10;9.18;;;13.20;99.90;;;;;;5075854;28;20044;-72
2022/06/13 03:48:32;;;;;;;23.77;9.90;;;13.20;99.90;;;;;;5062891;28;20040;-72
2022/06/13 03:51:06;;;;;;;23.10;9.40;;;13.30;99.90;;;;;;5085126;28;20036;-72
2022/06/13 03:54:15;;;;;;;19.13;8.85;;;13.30;99.90;;;;;;5061612;28;20052;-72
2022/06/13 03:57:01;;;;;;;21.35;9.18;;;13.30;99.90;;;;;;5061662;28;20113;-72
2022/06/13 03:59:37;;;;;;;23.33;9.73;;;13.40;99.90;;;;;;5064499;28;20120;-72
2022/06/13 04:02:08;;;;;;;18.80;8.98;;;13.40;99.90;;;;;;5057004;28;20048;-72
2022/06/13 04:04:44;;;;;;;21.88;9.77;;;13.40;99.90;;;;;;5067009;28;20033;-72
2022/06/13 04:07:10;;;;;;;18.30;9.90;;;13.40;99.90;;;;;;5074923;28;20810;-72
2022/06/13 04:09:51;;;;;;;20.33;9.48;;;13.50;99.90;;;;;;5065058;28;20131;-72
2022/06/13 04:12:35;;;;;;;21.50;10.15;;;13.40;99.90;;;;;;5068886;28;20075;-72
2022/06/13 04:15:43;;;;;;;25.05;9.43;;;13.50;99.90;;;;;;5065272;28;20045;-72
2022/06/13 04:18:52;;;;;;;20.63;9.70;;;13.50;99.90;;;;;;5071610;28;20039;-72
2022/06/13 04:21:50;;;;;;;20.55;9.93;;;13.50;99.90;;;;;;5055330;28;20056;-72
2022/06/13 04:24:31;;;;;;;21.15;9.95;;;13.50;99.90;;;;;;5060671;28;20031;-72
2022/06/13 04:27:09;;;;;;;23.10;10.20;;;13.50;99.90;;;;;;5063141;28;20036;-73
2022/06/13 04:29:41;;;;;;;25.60;10.38;;;13.60;99.90;;;;;;5075784;28;20032;-72
2022/06/13 04:32:14;;;;;;;22.95;10.88;;;13.60;99.90;;;;;;5066115;28;20047;-72
2022/06/13 04:34:49;;;;;;;23.13;10.05;;;13.70;99.90;;;;;;5066276;28;20040;-72
2022/06/13 04:37:16;;;;;;;29.08;10.45;;;13.80;99.90;;;;;;5073619;28;20036;-72
2022/06/13 04:39:44;;;;;;;23.05;9.90;;;13.80;99.90;;;;;;5083602;28;20131;-72
2022/06/13 04:42:12;;;;;;;20.67;10.57;;;13.80;99.90;;;;;;5064644;28;20086;-72
2022/06/13 04:44:41;;;;;;;24.73;11.30;;;13.80;99.90;;;;;;5071420;28;20037;-72
2022/06/13 04:47:08;;;;;;;17.83;10.32;;;13.90;99.90;;;;;;5069027;28;20033;-72
2022/06/13 04:49:48;;;;;;;21.30;9.63;;;13.90;99.90;;;;;;5075991;28;20056;-72
2022/06/13 04:52:18;;;;;;;20.83;9.20;;;14.00;99.90;;;;;;5059110;28;20036;-72
2022/06/13 04:54:52;;;;;;;21.50;9.43;;;14.00;99.90;;;;;;5067785;28;20044;-72
2022/06/13 04:57:19;;;;;;;20.67;8.52;;;14.00;99.90;;;;;;5060289;28;20032;-72
2022/06/13 04:59:46;;;;;;;17.65;8.10;;;14.00;99.90;;;;;;5075971;28;20047;-72
2022/06/13 05:02:16;;;;;;;18.33;8.40;;;14.00;99.90;;;;;;5066989;28;20077;-72
2022/06/13 05:04:42;;;;;;;18.05;7.57;;;14.10;99.90;;;;;;5080587;28;20045;-72
2022/06/13 05:07:17;;;;;;;17.45;7.20;;;14.10;99.90;;;;;;5071308;28;20039;-72
2022/06/13 05:09:49;;;;;;;14.73;7.20;;;14.20;99.90;;;;;;5084559;28;20082;-72
2022/06/13 05:12:28;;;;;;;17.80;6.40;;;14.20;99.90;;;;;;5076713;28;20097;-73
2022/06/13 05:15:04;;;;;;;18.38;6.97;;;14.40;99.90;;;;;;5073829;28;20119;-72
2022/06/13 05:18:01;;;;;;;20.13;6.63;;;14.40;99.90;;;;;;5065294;28;20043;-72
2022/06/13 05:20:46;;;;;;;16.38;6.25;;;14.50;99.90;;;;;;5065430;28;20048;-72
2022/06/13 05:23:45;;;;;;;15.32;5.45;;;14.60;99.90;;;;;;5085719;28;20110;-72
2022/06/13 05:26:11;;;;;;;14.57;5.47;;;14.70;99.90;;;;;;5071976;28;20494;-72
2022/06/13 05:28:37;;;;;;;15.02;5.63;;;14.70;99.90;;;;;;5087310;28;20035;-72
2022/06/13 05:31:19;;;;;;;14.13;5.20;;;14.80;99.90;;;;;;5068096;28;20063;-72
2022/06/13 05:33:46;;;;;;;13.57;5.28;;;14.80;99.90;;;;;;5068976;28;20086;-73
2022/06/13 05:36:16;;;;;;;12.73;4.72;;;14.80;99.90;;;;;;5069070;28;20088;-72
2022/06/13 05:38:45;;;;;;;9.32;4.05;;;14.80;99.90;;;;;;5069035;28;20127;-72
2022/06/13 05:41:11;;;;;;;11.40;4.18;;;14.80;99.90;;;;;;5068580;28;20062;-72
2022/06/13 05:43:37;;;;;;;11.45;4.13;;;14.60;99.90;;;;;;5065837;28;20036;-72
2022/06/13 05:46:07;;;;;;;13.00;4.38;;;14.60;99.90;;;;;;5066826;28;20475;-72
2022/06/13 05:48:33;;;;;;;10.30;3.95;;;14.60;99.90;;;;;;5068228;28;20043;-72
2022/06/13 05:50:59;;;;;;;8.73;3.35;;;14.70;99.90;;;;;;5067681;28;20093;-72
2022/06/13 05:53:26;;;;;;;10.48;4.05;;;14.80;99.90;;;;;;5064578;28;20039;-72
2022/06/13 05:55:56;;;;;;;15.95;4.15;;;14.80;99.90;;;;;;5059460;28;20495;-72
2022/06/13 05:58:22;;;;;;;9.07;3.60;;;14.90;99.90;;;;;;5064829;28;20036;-73
2022/06/13 06:00:52;;;;;;;7.72;3.05;;;15.10;99.90;;;;;;5060103;28;20042;-73
2022/06/13 06:03:19;;;;;;;11.23;3.22;;;15.20;99.90;;;;;;5068246;28;20057;-72
2022/06/13 06:05:45;;;;;;;10.63;2.80;;;15.40;99.90;;;;;;5069924;28;20461;-72
2022/06/13 06:08:22;;;;;;;8.43;2.83;;;15.60;99.90;;;;;;5068723;28;20038;-72
2022/06/13 06:10:51;;;;;;;8.98;3.03;;;15.70;99.90;;;;;;5067409;28;20040;-70
2022/06/13 06:13:17;;;;;;;12.85;5.38;;;15.70;99.90;;;;;;5065969;28;20040;-72
2022/06/13 06:15:46;;;;;;;7.95;2.90;;;15.80;99.90;;;;;;5067630;28;20039;-72
2022/06/13 06:18:12;;;;;;;7.20;2.58;;;15.90;99.90;;;;;;5065415;28;20036;-72
2022/06/13 06:20:38;;;;;;;11.75;2.80;;;16.00;99.90;;;;;;5060887;28;20080;-71
2022/06/13 06:23:04;;;;;;;7.35;2.70;;;16.10;99.90;;;;;;5069163;28;20085;-72
2022/06/13 06:25:30;;;;;;;9.15;3.00;;;16.20;99.90;;;;;;5073079;28;20040;-72
2022/06/13 06:27:56;;;;;;;12.32;3.30;;;16.30;99.90;;;;;;5078546;28;20028;-72
2022/06/13 06:30:23;;;;;;;11.20;3.00;;;16.40;99.90;;;;;;5071906;28;20040;-72
2022/06/13 06:32:48;;;;;;;8.57;2.83;;;16.40;99.90;;;;;;5065657;28;20041;-72
2022/06/13 06:35:15;;;;;;;9.25;2.97;;;16.40;99.90;;;;;;5067029;28;20464;-72
2022/06/13 06:37:46;;;;;;;7.82;2.60;;;16.40;99.90;;;;;;5065037;28;20066;-72
2022/06/13 06:40:14;;;;;;;8.07;2.25;;;16.50;99.90;;;;;;5090902;28;20074;-72
2022/06/13 06:42:40;;;;;;;8.68;2.42;;;16.60;99.90;;;;;;5073863;28;20384;-72
2022/06/13 06:45:06;;;;;;;8.23;2.85;;;16.70;99.90;;;;;;5091642;28;20039;-72
2022/06/13 06:47:32;;;;;;;9.07;2.60;;;16.70;99.90;;;;;;5070169;28;20041;-72
2022/06/13 06:49:58;;;;;;;6.57;2.15;;;16.70;99.90;;;;;;5085113;28;20068;-72
2022/06/13 06:52:24;;;;;;;6.20;2.15;;;16.80;99.90;;;;;;5078666;28;20036;-73
2022/06/13 07:00:19;;;;;;;4.93;1.70;;;16.70;99.90;;;;;;5068009;28;20153;-73
2022/06/13 07:02:45;;;;;;;11.07;2.38;;;16.80;99.90;;;;;;5064787;28;20043;-73
2022/06/13 07:05:12;;;;;;;8.40;1.80;;;16.80;99.90;;;;;;5079463;28;20028;-72
2022/06/13 07:07:39;;;;;;;9.68;2.08;;;16.70;99.90;;;;;;5072334;28;20047;-73
2022/06/13 07:10:05;;;;;;;20.13;3.65;;;16.50;99.90;;;;;;5057393;28;20045;-72
2022/06/13 07:12:31;;;;;;;11.30;2.60;;;16.10;99.90;;;;;;5065144;28;20039;-73
2022/06/13 07:14:57;;;;;;;3.05;0.90;;;15.40;99.90;;;;;;5084673;28;20059;-72
2022/06/13 07:17:22;;;;;;;3.83;0.93;;;14.90;99.90;;;;;;5073115;28;20051;-72
2022/06/13 07:19:48;;;;;;;4.78;1.10;;;14.70;99.90;;;;;;5074874;28;20044;-72
2022/06/13 07:22:17;;;;;;;7.78;1.38;;;14.60;99.90;;;;;;5089847;28;20036;-72
2022/06/13 07:24:44;;;;;;;4.05;1.30;;;14.50;99.90;;;;;;5089940;28;20040;-72
2022/06/13 07:27:10;;;;;;;7.55;1.67;;;14.50;99.90;;;;;;5070362;28;20035;-72
2022/06/13 07:29:36;;;;;;;5.60;1.70;;;14.40;99.90;;;;;;5072959;28;20036;-74
2022/06/13 07:32:13;;;;;;;6.05;1.70;;;14.40;99.90;;;;;;5076669;28;20380;-73
2022/06/13 07:34:40;;;;;;;4.65;1.55;;;14.50;99.90;;;;;;5080185;28;20118;-74
2022/06/13 07:37:09;;;;;;;5.63;2.00;;;14.60;99.90;;;;;;5069141;28;20044;-73
2022/06/13 07:39:35;;;;;;;5.15;2.05;;;14.70;99.90;;;;;;5061815;28;20051;-74
2022/06/13 07:42:02;;;;;;;5.78;1.50;;;14.90;99.90;;;;;;5081679;28;20474;-74
2022/06/13 07:44:36;;;;;;;3.97;1.50;;;15.10;99.90;;;;;;5078064;28;20048;-74
2022/06/13 07:47:02;;;;;;;4.28;1.50;;;15.40;99.90;;;;;;5069550;28;20039;-74
2022/06/13 07:49:28;;;;;;;4.45;1.42;;;15.60;99.90;;;;;;5052741;28;20066;-74
2022/06/13 07:51:54;;;;;;;3.17;1.20;;;15.80;99.90;;;;;;5069269;28;20044;-74
2022/06/13 07:54:20;;;;;;;8.88;1.50;;;16.00;99.90;;;;;;5073438;28;20063;-74
2022/06/13 07:56:45;;;;;;;7.18;1.60;;;16.10;99.90;;;;;;5086615;28;20032;-73
2022/06/13 07:59:17;;;;;;;5.20;1.40;;;16.30;99.90;;;;;;5070181;28;20040;-74
2022/06/13 08:01:43;;;;;;;5.00;1.90;;;16.40;99.90;;;;;;5068577;28;20117;-73
2022/06/13 08:04:09;;;;;;;4.10;1.40;;;16.60;99.90;;;;;;5073752;28;20490;-74
2022/06/13 08:06:38;;;;;;;6.43;1.58;;;16.80;99.90;;;;;;5069324;28;20044;-74
2022/06/13 08:09:04;;;;;;;7.68;1.70;;;17.00;99.90;;;;;;5077493;28;20040;-74
2022/06/13 08:11:34;;;;;;;6.70;1.50;;;17.20;99.90;;;;;;5067475;28;20047;-74
2022/06/13 08:14:00;;;;;;;5.60;1.50;;;17.20;99.90;;;;;;5067785;28;20487;-73
2022/06/13 08:16:27;;;;;;;9.05;2.05;;;17.40;99.90;;;;;;5064899;28;20047;-73
2022/06/13 08:18:53;;;;;;;5.97;1.50;;;17.50;99.90;;;;;;5063394;28;20043;-72
2022/06/13 08:21:19;;;;;;;7.15;1.90;;;17.70;99.90;;;;;;5071283;28;20040;-72
2022/06/13 08:23:45;;;;;;;8.43;1.98;;;17.70;99.90;;;;;;5061770;28;20054;-73
2022/06/13 08:26:11;;;;;;;5.93;1.63;;;17.80;99.90;;;;;;5075411;28;20044;-73
2022/06/13 08:28:37;;;;;;;5.50;1.60;;;17.90;99.90;;;;;;5072516;28;20043;-73
2022/06/13 08:31:09;;;;;;;7.70;1.70;;;18.00;99.90;;;;;;5089426;28;20036;-73
2022/06/13 08:33:35;;;;;;;5.63;1.75;;;18.20;99.90;;;;;;5073859;28;20043;-72
2022/06/13 08:36:01;;;;;;;5.00;1.70;;;18.30;99.90;;;;;;5065281;28;20044;-73
2022/06/13 08:38:27;;;;;;;6.18;1.52;;;18.50;99.90;;;;;;5071945;28;20131;-74
2022/06/13 08:41:11;;;;;;;8.90;1.75;;;18.50;99.90;;;;;;5072906;28;20043;-78
2022/06/13 08:44:02;;;;;;;12.23;2.00;;;18.70;99.90;;;;;;5072900;28;20035;-79
2022/06/13 08:46:38;;;;;;;4.55;1.45;;;18.70;99.90;;;;;;5071838;28;20048;-77
2022/06/13 08:49:36;;;;;;;7.25;1.58;;;18.60;99.90;;;;;;5075606;28;21857;-78
2022/06/13 08:52:23;;;;;;;12.23;1.73;;;18.60;99.90;;;;;;5065935;28;20040;-79
2022/06/13 08:55:14;;;;;;;12.48;1.88;;;18.60;99.90;;;;;;5073940;28;20081;-79
2022/06/13 08:57:47;;;;;;;6.18;1.52;;;18.70;99.90;;;;;;5076192;28;20139;-78
2022/06/13 09:00:18;;;;;;;9.65;1.60;;;18.80;99.90;;;;;;5070280;28;20064;-80
2022/06/13 09:02:57;;;;;;;7.60;1.40;;;18.80;99.90;;;;;;5073687;28;20036;-78
2022/06/13 09:05:27;;;;;;;4.70;1.30;;;18.80;99.90;;;;;;5068951;28;20032;-78
2022/06/13 09:08:00;;;;;;;5.75;1.40;;;18.80;99.90;;;;;;5056103;28;20127;-79
2022/06/13 09:10:37;;;;;;;4.68;1.25;;;18.70;99.90;;;;;;5087961;28;20035;-78
2022/06/13 09:13:12;;;;;;;6.63;1.30;;;18.60;99.90;;;;;;5042696;28;20035;-78
2022/06/13 09:15:47;;;;;;;5.13;1.45;;;18.50;99.90;;;;;;5059566;28;20075;-79
2022/06/13 09:18:29;;;;;;;14.85;2.75;;;18.30;99.90;;;;;;5061923;28;20041;-80
2022/06/13 09:21:05;;;;;;;10.82;1.58;;;18.30;99.90;;;;;;5074315;28;20044;-80
2022/06/13 09:24:05;;;;;;;6.32;1.48;;;18.30;99.90;;;;;;5069276;28;20032;-78
2022/06/13 09:26:51;;;;;;;6.05;1.42;;;18.40;99.90;;;;;;5079604;28;20032;-78
2022/06/13 09:29:35;;;;;;;5.57;1.40;;;18.60;99.90;;;;;;5060418;28;20051;-79
2022/06/13 09:32:21;;;;;;;4.75;1.30;;;18.70;99.90;;;;;;5064367;28;20036;-80
2022/06/13 09:35:18;;;;;;;9.80;1.50;;;18.90;99.90;;;;;;5069822;28;20046;-80
2022/06/13 09:37:56;;;;;;;6.30;1.30;;;18.90;99.90;;;;;;5052086;28;20047;-80
2022/06/13 09:41:13;;;;;;;3.88;1.17;;;19.00;99.90;;;;;;5052857;28;20902;-79
2022/06/13 09:44:06;;;;;;;6.22;1.35;;;19.00;99.90;;;;;;5053012;28;20075;-81
2022/06/13 09:47:11;;;;;;;10.23;1.70;;;18.80;99.90;;;;;;5079584;28;20028;-78
2022/06/13 09:50:13;;;;;;;8.80;1.30;;;18.20;99.90;;;;;;5049602;28;20388;-79
2022/06/13 09:53:10;;;;;;;8.35;1.75;;;17.90;99.90;;;;;;5074180;28;20036;-78
2022/06/13 09:55:48;;;;;;;6.78;1.60;;;17.80;99.90;;;;;;5070580;28;20434;-81
2022/06/13 09:58:42;;;;;;;6.90;1.40;;;17.70;99.90;;;;;;5060157;28;20047;-79
2022/06/13 10:01:21;;;;;;;6.38;1.60;;;17.80;99.90;;;;;;5082777;28;20491;-79
2022/06/13 10:04:12;;;;;;;5.50;1.50;;;18.20;99.90;;;;;;5069872;28;20067;-80
2022/06/13 10:06:38;;;;;;;4.47;1.38;;;18.50;99.90;;;;;;5069686;28;21033;-79
2022/06/13 10:09:03;;;;;;;4.85;1.42;;;18.70;99.90;;;;;;5035545;28;20042;-80
2022/06/13 10:11:48;;;;;;;5.32;1.25;;;19.00;99.90;;;;;;5072173;28;20043;-78
2022/06/13 10:14:48;;;;;;;5.22;1.30;;;19.10;99.90;;;;;;5068055;28;20089;-79
2022/06/13 10:17:34;;;;;;;4.47;1.23;;;19.30;99.90;;;;;;5067411;28;20050;-78
2022/06/13 10:20:20;;;;;;;6.60;1.40;;;19.60;99.90;;;;;;5069500;28;20032;-79
2022/06/13 10:23:24;;;;;;;6.18;1.30;;;19.90;99.90;;;;;;5073974;28;20046;-79
2022/06/13 10:26:04;;;;;;;3.28;1.27;;;20.00;99.50;;;;;;5072242;28;20593;-79
2022/06/13 10:29:02;;;;;;;6.75;1.58;;;20.20;99.90;;;;;;5067619;28;20036;-78
2022/06/13 10:31:41;;;;;;;7.18;1.60;;;20.20;99.30;;;;;;5067672;28;20119;-79
2022/06/13 10:34:10;;;;;;;9.45;1.85;;;19.90;98.90;;;;;;5075106;28;20044;-79
2022/06/13 10:36:56;;;;;;;6.70;1.70;;;19.90;98.00;;;;;;5056725;28;20044;-78
2022/06/13 10:39:24;;;;;;;7.15;1.90;;;20.00;98.80;;;;;;5051325;28;20498;-78
2022/06/13 10:41:54;;;;;;;6.60;1.60;;;20.10;99.10;;;;;;5063297;28;20071;-79
2022/06/13 10:44:21;;;;;;;8.57;1.90;;;20.30;99.70;;;;;;5063477;28;20042;-79
2022/06/13 10:46:56;;;;;;;10.77;1.58;;;20.30;97.10;;;;;;5088434;28;20471;-78
2022/06/13 10:49:28;;;;;;;7.13;1.85;;;20.30;97.90;;;;;;5070933;28;20480;-77
2022/06/13 10:52:01;;;;;;;10.52;1.80;;;20.40;92.70;;;;;;5072628;28;20502;-78
2022/06/13 10:54:36;;;;;;;32.53;4.80;;;20.50;94.50;;;;;;5075712;28;21081;-77
2022/06/13 10:57:07;;;;;;;4.32;1.35;;;20.60;93.40;;;;;;5070758;28;20040;-77
2022/06/13 10:59:35;;;;;;;8.85;1.60;;;20.60;90.80;;;;;;5116157;22;20697;-82
2022/06/13 11:02:21;;;;;;;5.47;1.55;;;20.80;85.50;;;;;;5004612;28;20448;-81
2022/06/13 11:05:06;;;;;;;6.40;1.50;;;20.90;92.80;;;;;;5029866;28;20039;-82
2022/06/13 11:07:35;;;;;;;9.55;1.77;;;21.10;89.60;;;;;;5004473;28;20037;-83
2022/06/13 11:10:01;;;;;;;6.20;1.40;;;21.20;93.10;;;;;;5026015;28;20065;-82
2022/06/13 11:12:34;;;;;;;14.73;2.50;;;21.30;92.80;;;;;;4996192;28;20105;-82
2022/06/13 11:23:51;;;;;;;10.55;1.98;;;20.40;92.70;;;;;;5017941;28;20046;-82
2022/06/13 11:29:05;;;;;;;13.45;2.25;;;20.00;95.90;;;;;;5008530;28;20415;-77
2022/06/13 11:31:31;;;;;;;228.13;37.15;;;19.50;96.90;;;;;;5015137;28;20507;-78
2022/06/13 11:33:56;;;;;;;9.38;2.38;;;19.20;98.10;;;;;;5030641;28;20124;-78
2022/06/13 11:36:27;;;;;;;9.60;2.10;;;19.10;99.90;;;;;;5010622;28;20510;-78
2022/06/13 11:38:59;;;;;;;7.68;1.60;;;19.10;98.00;;;;;;5011671;28;20441;-78
2022/06/13 11:41:36;;;;;;;7.85;1.75;;;19.20;99.90;;;;;;5011173;28;20033;-78
2022/06/13 11:44:18;;;;;;;10.25;2.10;;;19.20;99.90;;;;;;4997291;28;20037;-78
2022/06/13 11:46:52;;;;;;;7.70;1.63;;;19.30;99.90;;;;;;4997223;28;20060;-78
2022/06/13 11:49:18;;;;;;;9.07;1.70;;;19.20;99.20;;;;;;5011191;28;20038;-78
2022/06/13 11:51:56;;;;;;;44.53;5.18;;;19.10;99.90;;;;;;5030685;28;20544;-78
2022/06/13 11:54:28;;;;;;;10.05;2.15;;;19.20;99.90;;;;;;5014025;28;20112;-78
2022/06/13 11:57:12;;;;;;;16.35;2.80;;;19.50;99.90;;;;;;5013845;28;20033;-76
2022/06/13 12:00:07;;;;;;;13.80;2.30;;;19.80;99.00;;;;;;5008565;28;20064;-75
2022/06/13 12:02:41;;;;;;;11.27;2.10;;;19.80;99.60;;;;;;5008074;28;20073;-75
2022/06/13 12:05:21;;;;;;;9.35;2.08;;;19.60;98.30;;;;;;5000116;28;20103;-75
2022/06/13 12:08:03;;;;;;;5.95;1.75;;;19.50;98.60;;;;;;5014346;28;20037;-75
2022/06/13 12:10:36;;;;;;;;;;;19.40;98.50;;;;;;5015463;28;20042;-75
2022/06/13 12:13:05;;;;;;;14.55;2.33;;;19.60;99.60;;;;;;5015193;28;20367;-75
2022/06/13 12:15:36;;;;;;;16.98;2.95;;;20.10;99.70;;;;;;4996187;28;20037;-75
2022/06/13 12:18:05;;;;;;;14.63;2.20;;;20.50;99.30;;;;;;5026043;28;20041;-75
2022/06/13 12:20:44;;;;;;;8.27;1.92;;;20.50;94.00;;;;;;5009892;28;20049;-75
2022/06/13 12:23:15;;;;;;;6.00;1.48;;;20.40;95.30;;;;;;5011527;28;20057;-75
2022/06/13 12:26:00;;;;;;;6.87;1.53;;;20.30;95.10;;;;;;5011455;28;20041;-75
2022/06/13 12:28:37;;;;;;;9.27;1.77;;;20.10;94.00;;;;;;5019319;28;20091;-75
2022/06/13 12:31:16;;;;;;;7.18;1.80;;;20.10;95.30;;;;;;5007518;28;20038;-75
2022/06/13 12:33:44;;;;;;;7.10;1.58;;;20.20;92.50;;;;;;5008751;28;20037;-75
2022/06/13 12:36:19;;;;;;;8.15;1.60;;;20.30;94.70;;;;;;5010000;28;20054;-75
2022/06/13 12:39:15;;;;;;;6.35;1.55;;;20.20;93.30;;;;;;5011129;28;20045;-75
2022/06/13 12:41:49;;;;;;;6.47;1.50;;;20.10;91.50;;;;;;5015935;28;20068;-76
2022/06/13 12:44:22;;;;;;;9.93;1.67;;;20.00;91.20;;;;;;5013786;28;20041;-82
2022/06/13 12:47:00;;;;;;;6.35;1.48;;;20.00;94.10;;;;;;5011844;28;20034;-81
2022/06/13 12:50:03;;;;;;;5.70;1.50;;;20.10;92.50;;;;;;5016261;28;20063;-82
2022/06/13 12:52:56;;;;;;;6.82;1.58;;;20.40;89.00;;;;;;5033204;28;20119;-82
2022/06/13 12:55:32;;;;;;;7.38;1.52;;;20.40;87.90;;;;;;4996016;28;20038;-81
2022/06/13 12:58:42;;;;;;;8.43;1.70;;;20.10;83.80;;;;;;4991515;28;20133;-81
2022/06/13 13:01:14;;;;;;;11.75;1.92;;;20.00;84.30;;;;;;5016519;28;20111;-82
2022/06/13 13:04:11;;;;;;;11.88;1.88;;;19.60;90.20;;;;;;5021185;28;20072;-82
2022/06/13 13:06:41;;;;;;;10.82;1.42;;;19.50;94.30;;;;;;4998106;28;20045;-82
2022/06/13 13:09:06;;;;;;;9.18;1.77;;;19.30;92.90;;;;;;5018266;28;20040;-82
2022/06/13 13:11:51;;;;;;;5.22;1.40;;;19.20;95.00;;;;;;5014097;28;20049;-82
2022/06/13 13:14:22;;;;;;;9.43;1.92;;;19.20;95.10;;;;;;5013617;28;20076;-82
2022/06/13 13:17:19;;;;;;;9.07;1.73;;;19.10;97.30;;;;;;4982076;28;20046;-82
2022/06/13 13:19:45;;;;;;;6.10;1.65;;;19.00;96.50;;;;;;5030650;28;20076;-81
2022/06/13 13:22:21;;;;;;;9.13;1.77;;;18.90;98.60;;;;;;5027789;28;20060;-82
2022/06/13 13:24:56;;;;;;;6.47;1.70;;;18.80;99.90;;;;;;4996697;28;20116;-82
2022/06/13 13:27:24;;;;;;;9.20;1.63;;;18.70;99.90;;;;;;5002745;28;20136;-82
2022/06/13 13:30:29;;;;;;;5.60;1.33;;;18.70;99.30;;;;;;5000290;28;20033;-82
2022/06/13 13:33:08;;;;;;;8.02;1.60;;;18.70;98.50;;;;;;4954603;28;20082;-82
2022/06/13 13:36:02;;;;;;;7.32;1.58;;;18.80;98.50;;;;;;4988463;28;20041;-81
2022/06/13 13:38:30;;;;;;;9.40;1.35;;;19.30;99.90;;;;;;5008992;28;20045;-81
2022/06/13 13:41:10;;;;;;;6.03;1.60;;;19.80;97.20;;;;;;4979825;28;20060;-82
2022/06/13 13:43:39;;;;;;;7.15;1.40;;;20.20;92.60;;;;;;4993661;28;20041;-75